sensor_id;sensor_type;location;lat;lon;timestamp;temperature;humidity
27795;DHT22;15176;50.844;4.412;2023-03-01T00:01:00;9.00;57.20
27795;DHT22;15176;50.844;4.412;2023-03-01T00:03:25;8.90;57.70
27795;DHT22;15176;50.844;4.412;2023-03-01T00:05:51;9.20;57.90
27795;DHT22;15176;50.844;4.412;2023-03-01T00:08:17;9.20;57.60
27795;DHT22;15176;50.844;4.412;2023-03-01T00:10:42;9.50;60.90
27795;DHT22;15176;50.844;4.412;2023-03-01T00:13:08;9.50;57.90
27795;DHT22;15176;50.844;4.412;2023-03-01T00:15:38;9.50;60.10
27795;DHT22;15176;50.844;4.412;2023-03-01T00:18:04;9.70;58.60
27795;DHT22;15176;50.844;4.412;2023-03-01T00:20:29;9.80;58.10
27795;DHT22;15176;50.844;4.412;2023-03-01T00:22:55;9.70;59.00
27795;DHT22;15176;50.844;4.412;2023-03-01T00:25:21;9.50;58.10
27795;DHT22;15176;50.844;4.412;2023-03-01T00:27:47;9.40;58.10
27795;DHT22;15176;50.844;4.412;2023-03-01T00:30:14;9.70;59.80
27795;DHT22;15176;50.844;4.412;2023-03-01T00:32:40;9.60;59.70
27795;DHT22;15176;50.844;4.412;2023-03-01T00:35:06;9.50;58.00
27795;DHT22;15176;50.844;4.412;2023-03-01T00:37:31;9.50;58.30
27795;DHT22;15176;50.844;4.412;2023-03-01T00:39:57;9.00;58.10
27795;DHT22;15176;50.844;4.412;2023-03-01T00:42:23;9.00;58.90
27795;DHT22;15176;50.844;4.412;2023-03-01T00:44:48;8.90;59.20
27795;DHT22;15176;50.844;4.412;2023-03-01T00:47:14;9.10;59.80
27795;DHT22;15176;50.844;4.412;2023-03-01T00:49:40;9.20;59.40
27795;DHT22;15176;50.844;4.412;2023-03-01T00:52:05;9.40;60.40
27795;DHT22;15176;50.844;4.412;2023-03-01T00:54:31;9.40;59.50
27795;DHT22;15176;50.844;4.412;2023-03-01T00:56:57;9.40;59.20
27795;DHT22;15176;50.844;4.412;2023-03-01T00:59:22;9.50;58.80
27795;DHT22;15176;50.844;4.412;2023-03-01T01:01:48;9.50;58.20
27795;DHT22;15176;50.844;4.412;2023-03-01T01:04:14;9.30;58.30
27795;DHT22;15176;50.844;4.412;2023-03-01T01:06:49;9.30;58.40
27795;DHT22;15176;50.844;4.412;2023-03-01T01:09:16;9.40;59.60
27795;DHT22;15176;50.844;4.412;2023-03-01T01:11:48;9.20;58.60
27795;DHT22;15176;50.844;4.412;2023-03-01T01:14:15;8.80;58.60
27795;DHT22;15176;50.844;4.412;2023-03-01T01:16:41;8.80;59.60
27795;DHT22;15176;50.844;4.412;2023-03-01T01:19:07;8.80;59.90
27795;DHT22;15176;50.844;4.412;2023-03-01T01:21:33;9.00;60.00
27795;DHT22;15176;50.844;4.412;2023-03-01T01:23:59;8.90;59.80
27795;DHT22;15176;50.844;4.412;2023-03-01T01:26:28;8.90;59.20
27795;DHT22;15176;50.844;4.412;2023-03-01T01:28:54;8.80;59.20
27795;DHT22;15176;50.844;4.412;2023-03-01T01:31:21;8.60;60.60
27795;DHT22;15176;50.844;4.412;2023-03-01T01:33:49;8.50;62.50
27795;DHT22;15176;50.844;4.412;2023-03-01T01:36:16;8.60;63.50
27795;DHT22;15176;50.844;4.412;2023-03-01T01:38:42;8.50;61.70
27795;DHT22;15176;50.844;4.412;2023-03-01T01:41:09;8.00;62.80
27795;DHT22;15176;50.844;4.412;2023-03-01T01:43:49;8.30;63.00
27795;DHT22;15176;50.844;4.412;2023-03-01T01:46:16;8.20;62.80
27795;DHT22;15176;50.844;4.412;2023-03-01T01:48:48;8.10;64.30
27795;DHT22;15176;50.844;4.412;2023-03-01T01:51:21;7.90;64.10
27795;DHT22;15176;50.844;4.412;2023-03-01T01:53:53;7.60;64.80
27795;DHT22;15176;50.844;4.412;2023-03-01T01:56:22;7.90;66.60
27795;DHT22;15176;50.844;4.412;2023-03-01T01:58:49;8.10;65.30
27795;DHT22;15176;50.844;4.412;2023-03-01T02:01:16;8.10;64.70
27795;DHT22;15176;50.844;4.412;2023-03-01T02:03:43;8.10;64.30
27795;DHT22;15176;50.844;4.412;2023-03-01T02:08:57;7.90;67.20
27795;DHT22;15176;50.844;4.412;2023-03-01T02:11:25;8.20;68.30
27795;DHT22;15176;50.844;4.412;2023-03-01T02:13:51;8.20;65.90
27795;DHT22;15176;50.844;4.412;2023-03-01T02:16:17;8.00;64.60
27795;DHT22;15176;50.844;4.412;2023-03-01T02:18:44;8.10;66.90
27795;DHT22;15176;50.844;4.412;2023-03-01T02:23:39;8.20;67.80
27795;DHT22;15176;50.844;4.412;2023-03-01T02:26:30;8.30;65.70
27795;DHT22;15176;50.844;4.412;2023-03-01T02:29:00;8.00;65.00
27795;DHT22;15176;50.844;4.412;2023-03-01T02:31:26;7.80;66.20
27795;DHT22;15176;50.844;4.412;2023-03-01T02:34:13;7.70;68.50
27795;DHT22;15176;50.844;4.412;2023-03-01T02:36:42;7.90;67.10
27795;DHT22;15176;50.844;4.412;2023-03-01T02:39:15;7.80;67.70
27795;DHT22;15176;50.844;4.412;2023-03-01T02:41:45;7.90;68.70
27795;DHT22;15176;50.844;4.412;2023-03-01T02:44:12;8.00;67.80
27795;DHT22;15176;50.844;4.412;2023-03-01T02:46:50;8.10;66.80
27795;DHT22;15176;50.844;4.412;2023-03-01T02:49:20;8.00;68.30
27795;DHT22;15176;50.844;4.412;2023-03-01T02:51:59;8.00;68.50
27795;DHT22;15176;50.844;4.412;2023-03-01T02:56:59;8.00;67.00
27795;DHT22;15176;50.844;4.412;2023-03-01T02:59:30;8.00;66.80
27795;DHT22;15176;50.844;4.412;2023-03-01T03:01:57;8.00;68.20
27795;DHT22;15176;50.844;4.412;2023-03-01T03:04:25;8.00;67.60
27795;DHT22;15176;50.844;4.412;2023-03-01T03:06:51;7.80;68.60
27795;DHT22;15176;50.844;4.412;2023-03-01T03:09:18;7.80;69.00
27795;DHT22;15176;50.844;4.412;2023-03-01T03:11:44;8.10;69.00
27795;DHT22;15176;50.844;4.412;2023-03-01T03:14:11;8.40;70.60
27795;DHT22;15176;50.844;4.412;2023-03-01T03:16:46;8.40;67.60
27795;DHT22;15176;50.844;4.412;2023-03-01T03:19:12;7.90;66.80
27795;DHT22;15176;50.844;4.412;2023-03-01T03:21:38;7.90;68.10
27795;DHT22;15176;50.844;4.412;2023-03-01T03:24:04;7.90;67.90
27795;DHT22;15176;50.844;4.412;2023-03-01T03:26:31;8.20;69.00
27795;DHT22;15176;50.844;4.412;2023-03-01T03:28:57;8.40;69.90
27795;DHT22;15176;50.844;4.412;2023-03-01T03:31:23;8.30;66.70
27795;DHT22;15176;50.844;4.412;2023-03-01T03:33:49;8.10;66.00
27795;DHT22;15176;50.844;4.412;2023-03-01T03:36:19;7.90;68.60
27795;DHT22;15176;50.844;4.412;2023-03-01T03:38:45;8.00;69.20
27795;DHT22;15176;50.844;4.412;2023-03-01T03:41:12;8.10;67.10
27795;DHT22;15176;50.844;4.412;2023-03-01T03:43:40;7.90;66.90
27795;DHT22;15176;50.844;4.412;2023-03-01T03:46:08;7.70;68.00
27795;DHT22;15176;50.844;4.412;2023-03-01T03:48:42;7.50;68.90
27795;DHT22;15176;50.844;4.412;2023-03-01T03:51:14;7.30;69.90
27795;DHT22;15176;50.844;4.412;2023-03-01T03:53:41;7.30;69.90
27795;DHT22;15176;50.844;4.412;2023-03-01T03:56:07;7.30;69.90
27795;DHT22;15176;50.844;4.412;2023-03-01T03:58:33;7.50;71.20
27795;DHT22;15176;50.844;4.412;2023-03-01T04:00:59;7.60;70.70
27795;DHT22;15176;50.844;4.412;2023-03-01T04:03:27;7.30;69.80
27795;DHT22;15176;50.844;4.412;2023-03-01T04:05:53;7.30;70.80
27795;DHT22;15176;50.844;4.412;2023-03-01T04:08:21;7.30;72.20
27795;DHT22;15176;50.844;4.412;2023-03-01T04:10:52;7.10;70.90
27795;DHT22;15176;50.844;4.412;2023-03-01T04:13:22;7.00;71.90
27795;DHT22;15176;50.844;4.412;2023-03-01T04:15:52;6.80;71.60
27795;DHT22;15176;50.844;4.412;2023-03-01T04:18:19;6.70;72.80
27795;DHT22;15176;50.844;4.412;2023-03-01T04:20:46;6.50;75.30
27795;DHT22;15176;50.844;4.412;2023-03-01T04:23:17;6.70;77.10
27795;DHT22;15176;50.844;4.412;2023-03-01T04:25:51;6.90;78.50
27795;DHT22;15176;50.844;4.412;2023-03-01T04:28:22;7.00;75.90
27795;DHT22;15176;50.844;4.412;2023-03-01T04:30:52;6.70;75.70
27795;DHT22;15176;50.844;4.412;2023-03-01T04:33:18;6.70;75.30
27795;DHT22;15176;50.844;4.412;2023-03-01T04:35:44;6.70;76.80
27795;DHT22;15176;50.844;4.412;2023-03-01T04:38:13;6.90;78.20
27795;DHT22;15176;50.844;4.412;2023-03-01T04:40:40;7.10;76.60
27795;DHT22;15176;50.844;4.412;2023-03-01T04:43:09;7.20;77.70
27795;DHT22;15176;50.844;4.412;2023-03-01T04:45:35;7.00;76.90
27795;DHT22;15176;50.844;4.412;2023-03-01T04:48:03;6.80;75.60
27795;DHT22;15176;50.844;4.412;2023-03-01T04:50:29;6.90;75.30
27795;DHT22;15176;50.844;4.412;2023-03-01T04:52:55;6.80;75.20
27795;DHT22;15176;50.844;4.412;2023-03-01T04:55:28;6.30;76.30
27795;DHT22;15176;50.844;4.412;2023-03-01T04:57:54;6.00;78.70
27795;DHT22;15176;50.844;4.412;2023-03-01T05:00:20;5.70;80.40
27795;DHT22;15176;50.844;4.412;2023-03-01T05:02:52;6.00;81.60
27795;DHT22;15176;50.844;4.412;2023-03-01T05:05:33;6.00;80.90
27795;DHT22;15176;50.844;4.412;2023-03-01T05:08:01;6.10;80.50
27795;DHT22;15176;50.844;4.412;2023-03-01T05:10:30;6.00;80.30
27795;DHT22;15176;50.844;4.412;2023-03-01T05:12:57;6.20;80.20
27795;DHT22;15176;50.844;4.412;2023-03-01T05:15:24;6.00;81.00
27795;DHT22;15176;50.844;4.412;2023-03-01T05:17:54;6.40;82.40
27795;DHT22;15176;50.844;4.412;2023-03-01T05:20:19;6.30;81.20
27795;DHT22;15176;50.844;4.412;2023-03-01T05:22:49;6.40;81.20
27795;DHT22;15176;50.844;4.412;2023-03-01T05:25:14;6.90;80.20
27795;DHT22;15176;50.844;4.412;2023-03-01T05:27:40;6.90;78.50
27795;DHT22;15176;50.844;4.412;2023-03-01T05:30:06;7.20;80.80
27795;DHT22;15176;50.844;4.412;2023-03-01T05:32:46;7.20;77.70
27795;DHT22;15176;50.844;4.412;2023-03-01T05:35:14;7.50;76.20
27795;DHT22;15176;50.844;4.412;2023-03-01T05:37:44;7.50;75.90
27795;DHT22;15176;50.844;4.412;2023-03-01T05:40:12;7.50;74.50
27795;DHT22;15176;50.844;4.412;2023-03-01T05:42:45;7.70;76.90
27795;DHT22;15176;50.844;4.412;2023-03-01T05:45:12;8.00;76.70
27795;DHT22;15176;50.844;4.412;2023-03-01T05:47:43;8.00;73.20
27795;DHT22;15176;50.844;4.412;2023-03-01T05:50:29;7.70;74.70
27795;DHT22;15176;50.844;4.412;2023-03-01T05:53:01;7.80;74.40
27795;DHT22;15176;50.844;4.412;2023-03-01T05:55:29;7.60;74.20
27795;DHT22;15176;50.844;4.412;2023-03-01T05:57:57;7.70;75.60
27795;DHT22;15176;50.844;4.412;2023-03-01T06:00:23;7.40;76.80
27795;DHT22;15176;50.844;4.412;2023-03-01T06:02:49;7.70;76.70
27795;DHT22;15176;50.844;4.412;2023-03-01T06:05:16;7.80;73.40
27795;DHT22;15176;50.844;4.412;2023-03-01T06:07:42;7.90;74.50
27795;DHT22;15176;50.844;4.412;2023-03-01T06:10:09;7.80;75.50
27795;DHT22;15176;50.844;4.412;2023-03-01T06:12:37;8.00;73.60
27795;DHT22;15176;50.844;4.412;2023-03-01T06:15:04;7.80;73.60
27795;DHT22;15176;50.844;4.412;2023-03-01T06:17:31;8.10;78.00
27795;DHT22;15176;50.844;4.412;2023-03-01T06:19:57;8.60;78.30
27795;DHT22;15176;50.844;4.412;2023-03-01T06:22:23;9.40;76.80
27795;DHT22;15176;50.844;4.412;2023-03-01T06:24:49;9.40;69.80
27795;DHT22;15176;50.844;4.412;2023-03-01T06:27:15;9.40;68.30
27795;DHT22;15176;50.844;4.412;2023-03-01T06:29:41;8.90;70.60
27795;DHT22;15176;50.844;4.412;2023-03-01T06:32:07;9.20;68.10
27795;DHT22;15176;50.844;4.412;2023-03-01T06:34:33;9.10;71.30
27795;DHT22;15176;50.844;4.412;2023-03-01T06:36:59;8.90;69.00
27795;DHT22;15176;50.844;4.412;2023-03-01T06:39:27;8.80;70.80
27795;DHT22;15176;50.844;4.412;2023-03-01T06:41:52;8.90;71.90
27795;DHT22;15176;50.844;4.412;2023-03-01T06:44:18;8.80;69.50
27795;DHT22;15176;50.844;4.412;2023-03-01T06:46:45;9.20;70.90
27795;DHT22;15176;50.844;4.412;2023-03-01T06:49:10;9.20;71.40
27795;DHT22;15176;50.844;4.412;2023-03-01T06:51:36;8.70;69.80
27795;DHT22;15176;50.844;4.412;2023-03-01T06:54:03;8.50;70.80
27795;DHT22;15176;50.844;4.412;2023-03-01T06:56:30;8.20;70.00
27795;DHT22;15176;50.844;4.412;2023-03-01T06:58:56;8.40;72.90
27795;DHT22;15176;50.844;4.412;2023-03-01T07:01:21;8.40;71.40
27795;DHT22;15176;50.844;4.412;2023-03-01T07:03:48;8.60;74.30
27795;DHT22;15176;50.844;4.412;2023-03-01T07:06:14;8.70;71.00
27795;DHT22;15176;50.844;4.412;2023-03-01T07:08:40;8.60;72.40
27795;DHT22;15176;50.844;4.412;2023-03-01T07:11:06;7.80;74.40
27795;DHT22;15176;50.844;4.412;2023-03-01T07:13:32;8.10;82.60
27795;DHT22;15176;50.844;4.412;2023-03-01T07:15:58;8.40;75.40
27795;DHT22;15176;50.844;4.412;2023-03-01T07:18:24;8.70;74.40
27795;DHT22;15176;50.844;4.412;2023-03-01T07:20:50;8.70;71.50
27795;DHT22;15176;50.844;4.412;2023-03-01T07:23:18;8.90;74.20
27795;DHT22;15176;50.844;4.412;2023-03-01T07:25:46;8.60;75.60
27795;DHT22;15176;50.844;4.412;2023-03-01T07:28:16;9.00;77.00
27795;DHT22;15176;50.844;4.412;2023-03-01T07:30:41;8.80;70.70
27795;DHT22;15176;50.844;4.412;2023-03-01T07:33:07;7.90;72.00
27795;DHT22;15176;50.844;4.412;2023-03-01T07:35:35;8.00;75.60
27795;DHT22;15176;50.844;4.412;2023-03-01T07:38:01;8.20;75.20
27795;DHT22;15176;50.844;4.412;2023-03-01T07:40:27;8.60;75.10
27795;DHT22;15176;50.844;4.412;2023-03-01T07:42:57;8.80;74.90
27795;DHT22;15176;50.844;4.412;2023-03-01T07:45:24;8.90;70.00
27795;DHT22;15176;50.844;4.412;2023-03-01T07:47:51;8.50;72.80
27795;DHT22;15176;50.844;4.412;2023-03-01T07:50:18;8.70;71.50
27795;DHT22;15176;50.844;4.412;2023-03-01T07:52:48;9.10;70.90
27795;DHT22;15176;50.844;4.412;2023-03-01T07:55:14;8.70;69.40
27795;DHT22;15176;50.844;4.412;2023-03-01T07:57:40;8.40;70.40
27795;DHT22;15176;50.844;4.412;2023-03-01T08:00:07;8.20;71.50
27795;DHT22;15176;50.844;4.412;2023-03-01T08:02:33;7.70;72.90
27795;DHT22;15176;50.844;4.412;2023-03-01T08:05:05;7.30;75.70
27795;DHT22;15176;50.844;4.412;2023-03-01T08:07:31;7.60;75.80
27795;DHT22;15176;50.844;4.412;2023-03-01T08:09:56;7.80;79.60
27795;DHT22;15176;50.844;4.412;2023-03-01T08:12:22;8.00;78.50
27795;DHT22;15176;50.844;4.412;2023-03-01T08:14:48;8.20;75.00
27795;DHT22;15176;50.844;4.412;2023-03-01T08:17:14;8.20;73.30
27795;DHT22;15176;50.844;4.412;2023-03-01T08:19:40;8.10;73.90
27795;DHT22;15176;50.844;4.412;2023-03-01T08:22:06;8.40;74.30
27795;DHT22;15176;50.844;4.412;2023-03-01T08:24:32;8.60;75.20
27795;DHT22;15176;50.844;4.412;2023-03-01T08:26:57;8.50;81.50
27795;DHT22;15176;50.844;4.412;2023-03-01T08:29:24;9.90;87.40
27795;DHT22;15176;50.844;4.412;2023-03-01T08:31:50;11.20;74.70
27795;DHT22;15176;50.844;4.412;2023-03-01T08:34:18;12.10;68.70
27795;DHT22;15176;50.844;4.412;2023-03-01T08:36:45;12.60;60.30
27795;DHT22;15176;50.844;4.412;2023-03-01T08:39:13;13.60;63.20
27795;DHT22;15176;50.844;4.412;2023-03-01T08:41:40;14.40;58.60
27795;DHT22;15176;50.844;4.412;2023-03-01T08:44:15;14.80;52.90
27795;DHT22;15176;50.844;4.412;2023-03-01T08:46:46;15.50;52.30
27795;DHT22;15176;50.844;4.412;2023-03-01T08:49:14;15.30;49.10
27795;DHT22;15176;50.844;4.412;2023-03-01T08:51:41;15.60;49.90
27795;DHT22;15176;50.844;4.412;2023-03-01T08:54:11;15.60;49.10
27795;DHT22;15176;50.844;4.412;2023-03-01T08:56:37;15.70;48.30
27795;DHT22;15176;50.844;4.412;2023-03-01T08:59:03;16.30;50.20
27795;DHT22;15176;50.844;4.412;2023-03-01T09:01:29;17.00;49.10
27795;DHT22;15176;50.844;4.412;2023-03-01T09:03:55;17.50;47.40
27795;DHT22;15176;50.844;4.412;2023-03-01T09:06:21;17.60;45.10
27795;DHT22;15176;50.844;4.412;2023-03-01T09:08:50;17.70;45.40
27795;DHT22;15176;50.844;4.412;2023-03-01T09:11:19;17.80;44.00
27795;DHT22;15176;50.844;4.412;2023-03-01T09:13:46;17.40;45.10
27795;DHT22;15176;50.844;4.412;2023-03-01T09:16:15;17.80;43.90
27795;DHT22;15176;50.844;4.412;2023-03-01T09:18:42;18.10;44.80
27795;DHT22;15176;50.844;4.412;2023-03-01T09:21:10;18.40;43.40
27795;DHT22;15176;50.844;4.412;2023-03-01T09:23:42;17.50;43.80
27795;DHT22;15176;50.844;4.412;2023-03-01T09:26:11;17.30;44.50
27795;DHT22;15176;50.844;4.412;2023-03-01T09:28:39;17.60;43.90
27795;DHT22;15176;50.844;4.412;2023-03-01T09:31:06;18.20;44.20
27795;DHT22;15176;50.844;4.412;2023-03-01T09:33:33;18.80;43.20
27795;DHT22;15176;50.844;4.412;2023-03-01T09:35:59;18.70;42.20
27795;DHT22;15176;50.844;4.412;2023-03-01T09:38:25;18.50;42.60
27795;DHT22;15176;50.844;4.412;2023-03-01T09:40:52;18.50;41.30
27795;DHT22;15176;50.844;4.412;2023-03-01T09:46:09;19.20;41.20
27795;DHT22;15176;50.844;4.412;2023-03-01T09:48:45;19.40;41.10
27795;DHT22;15176;50.844;4.412;2023-03-01T09:51:19;20.10;40.80
27795;DHT22;15176;50.844;4.412;2023-03-01T09:53:47;20.60;39.60
27795;DHT22;15176;50.844;4.412;2023-03-01T09:56:20;20.40;38.40
27795;DHT22;15176;50.844;4.412;2023-03-01T09:59:06;20.40;38.40
27795;DHT22;15176;50.844;4.412;2023-03-01T10:04:32;19.50;39.50
27795;DHT22;15176;50.844;4.412;2023-03-01T10:09:42;19.90;39.10
27795;DHT22;15176;50.844;4.412;2023-03-01T10:12:15;20.10;38.20
27795;DHT22;15176;50.844;4.412;2023-03-01T10:15:34;19.80;38.50
27795;DHT22;15176;50.844;4.412;2023-03-01T10:17:57;19.30;39.00
27795;DHT22;15176;50.844;4.412;2023-03-01T10:20:31;19.10;39.30
27795;DHT22;15176;50.844;4.412;2023-03-01T10:22:58;18.30;41.30
27795;DHT22;15176;50.844;4.412;2023-03-01T10:27:55;18.60;40.80
27795;DHT22;15176;50.844;4.412;2023-03-01T10:30:43;19.30;39.80
27795;DHT22;15176;50.844;4.412;2023-03-01T10:33:32;19.20;39.00
27795;DHT22;15176;50.844;4.412;2023-03-01T10:35:58;19.40;38.50
27795;DHT22;15176;50.844;4.412;2023-03-01T10:38:31;19.50;38.40
27795;DHT22;15176;50.844;4.412;2023-03-01T10:41:16;19.10;38.70
27795;DHT22;15176;50.844;4.412;2023-03-01T10:43:51;19.20;39.20
27795;DHT22;15176;50.844;4.412;2023-03-01T10:46:35;19.50;38.40
27795;DHT22;15176;50.844;4.412;2023-03-01T10:49:22;18.70;38.90
27795;DHT22;15176;50.844;4.412;2023-03-01T10:51:50;18.40;39.00
27795;DHT22;15176;50.844;4.412;2023-03-01T10:54:23;18.60;38.60
27795;DHT22;15176;50.844;4.412;2023-03-01T10:57:24;18.80;38.90
27795;DHT22;15176;50.844;4.412;2023-03-01T11:00:10;19.40;38.20
27795;DHT22;15176;50.844;4.412;2023-03-01T11:02:36;19.60;37.90
27795;DHT22;15176;50.844;4.412;2023-03-01T11:05:20;19.50;37.50
27795;DHT22;15176;50.844;4.412;2023-03-01T11:07:57;18.90;37.60
27795;DHT22;15176;50.844;4.412;2023-03-01T11:10:27;18.60;37.90
27795;DHT22;15176;50.844;4.412;2023-03-01T11:12:56;18.40;38.80
27795;DHT22;15176;50.844;4.412;2023-03-01T11:15:31;18.20;39.00
27795;DHT22;15176;50.844;4.412;2023-03-01T11:17:57;18.70;38.80
27795;DHT22;15176;50.844;4.412;2023-03-01T11:20:33;19.30;38.60
27795;DHT22;15176;50.844;4.412;2023-03-01T11:23:05;19.30;37.40
27795;DHT22;15176;50.844;4.412;2023-03-01T11:25:40;19.20;37.20
27795;DHT22;15176;50.844;4.412;2023-03-01T11:28:12;18.40;37.90
27795;DHT22;15176;50.844;4.412;2023-03-01T11:33:43;19.10;39.00
27795;DHT22;15176;50.844;4.412;2023-03-01T11:36:42;19.30;37.60
27795;DHT22;15176;50.844;4.412;2023-03-01T11:42:22;19.10;37.90
27795;DHT22;15176;50.844;4.412;2023-03-01T11:44:55;19.00;37.30
27795;DHT22;15176;50.844;4.412;2023-03-01T12:04:23;19.00;36.80
27795;DHT22;15176;50.844;4.412;2023-03-01T12:24:22;17.60;39.10
27795;DHT22;15176;50.844;4.412;2023-03-01T12:29:39;18.60;38.70
27795;DHT22;15176;50.844;4.412;2023-03-01T12:35:41;18.70;37.50
27795;DHT22;15176;50.844;4.412;2023-03-01T12:38:32;17.90;37.60
27795;DHT22;15176;50.844;4.412;2023-03-01T12:43:47;17.60;38.70
27795;DHT22;15176;50.844;4.412;2023-03-01T12:54:49;17.00;41.30
27795;DHT22;15176;50.844;4.412;2023-03-01T12:57:40;17.90;39.60
27795;DHT22;15176;50.844;4.412;2023-03-01T13:03:26;17.70;38.90
27795;DHT22;15176;50.844;4.412;2023-03-01T13:06:40;17.90;38.30
27795;DHT22;15176;50.844;4.412;2023-03-01T13:09:19;17.70;38.90
27795;DHT22;15176;50.844;4.412;2023-03-01T13:11:45;18.00;38.70
27795;DHT22;15176;50.844;4.412;2023-03-01T13:16:53;18.00;38.40
27795;DHT22;15176;50.844;4.412;2023-03-01T13:19:23;17.80;38.70
27795;DHT22;15176;50.844;4.412;2023-03-01T13:21:51;17.90;38.60
27795;DHT22;15176;50.844;4.412;2023-03-01T13:29:53;17.20;39.40
27795;DHT22;15176;50.844;4.412;2023-03-01T13:34:48;17.20;39.00
27795;DHT22;15176;50.844;4.412;2023-03-01T13:37:34;17.40;39.10
27795;DHT22;15176;50.844;4.412;2023-03-01T13:42:55;17.60;39.10
27795;DHT22;15176;50.844;4.412;2023-03-01T13:45:38;17.60;38.40
27795;DHT22;15176;50.844;4.412;2023-03-01T13:48:16;18.30;38.80
27795;DHT22;15176;50.844;4.412;2023-03-01T13:51:08;18.60;37.30
27795;DHT22;15176;50.844;4.412;2023-03-01T13:53:38;18.10;37.80
27795;DHT22;15176;50.844;4.412;2023-03-01T13:56:25;17.80;37.50
27795;DHT22;15176;50.844;4.412;2023-03-01T13:59:01;17.50;38.80
27795;DHT22;15176;50.844;4.412;2023-03-01T14:01:32;16.80;39.40
27795;DHT22;15176;50.844;4.412;2023-03-01T14:03:58;17.00;40.10
27795;DHT22;15176;50.844;4.412;2023-03-01T14:06:28;17.10;39.10
27795;DHT22;15176;50.844;4.412;2023-03-01T14:09:28;16.90;39.30
27795;DHT22;15176;50.844;4.412;2023-03-01T14:12:37;16.60;39.60
27795;DHT22;15176;50.844;4.412;2023-03-01T14:15:25;16.50;39.00
27795;DHT22;15176;50.844;4.412;2023-03-01T14:21:21;16.30;39.20
27795;DHT22;15176;50.844;4.412;2023-03-01T14:23:48;16.40;39.50
27795;DHT22;15176;50.844;4.412;2023-03-01T14:26:21;16.30;39.80
27795;DHT22;15176;50.844;4.412;2023-03-01T14:28:48;16.10;39.90
27795;DHT22;15176;50.844;4.412;2023-03-01T14:31:35;16.30;40.90
27795;DHT22;15176;50.844;4.412;2023-03-01T14:34:02;15.90;40.50
27795;DHT22;15176;50.844;4.412;2023-03-01T14:36:30;15.80;41.60
27795;DHT22;15176;50.844;4.412;2023-03-01T14:38:56;16.00;40.60
27795;DHT22;15176;50.844;4.412;2023-03-01T14:41:34;15.90;40.50
27795;DHT22;15176;50.844;4.412;2023-03-01T14:44:12;15.40;41.30
27795;DHT22;15176;50.844;4.412;2023-03-01T14:46:44;15.40;41.40
27795;DHT22;15176;50.844;4.412;2023-03-01T14:51:39;14.60;42.60
27795;DHT22;15176;50.844;4.412;2023-03-01T14:54:25;14.70;43.30
27795;DHT22;15176;50.844;4.412;2023-03-01T14:56:54;14.50;43.10
27795;DHT22;15176;50.844;4.412;2023-03-01T14:59:23;14.90;43.10
27795;DHT22;15176;50.844;4.412;2023-03-01T15:01:51;15.10;42.40
27795;DHT22;15176;50.844;4.412;2023-03-01T15:04:19;15.00;42.60
27795;DHT22;15176;50.844;4.412;2023-03-01T15:06:47;14.50;42.80
27795;DHT22;15176;50.844;4.412;2023-03-01T15:09:17;14.70;43.10
27795;DHT22;15176;50.844;4.412;2023-03-01T15:11:43;14.40;43.70
27795;DHT22;15176;50.844;4.412;2023-03-01T15:14:48;14.50;43.60
27795;DHT22;15176;50.844;4.412;2023-03-01T15:17:26;14.60;44.10
27795;DHT22;15176;50.844;4.412;2023-03-01T15:19:54;14.70;43.40
27795;DHT22;15176;50.844;4.412;2023-03-01T15:22:20;14.60;43.90
27795;DHT22;15176;50.844;4.412;2023-03-01T15:24:48;14.60;44.10
27795;DHT22;15176;50.844;4.412;2023-03-01T15:27:20;14.50;43.60
27795;DHT22;15176;50.844;4.412;2023-03-01T15:29:58;14.70;43.60
27795;DHT22;15176;50.844;4.412;2023-03-01T15:32:26;14.70;43.50
27795;DHT22;15176;50.844;4.412;2023-03-01T15:34:54;14.70;43.30
27795;DHT22;15176;50.844;4.412;2023-03-01T15:40:50;14.00;44.90
27795;DHT22;15176;50.844;4.412;2023-03-01T15:43:44;14.10;45.20
27795;DHT22;15176;50.844;4.412;2023-03-01T15:46:31;13.80;44.90
27795;DHT22;15176;50.844;4.412;2023-03-01T15:49:19;13.60;45.30
27795;DHT22;15176;50.844;4.412;2023-03-01T15:51:52;13.50;45.20
27795;DHT22;15176;50.844;4.412;2023-03-01T15:54:21;13.30;45.90
27795;DHT22;15176;50.844;4.412;2023-03-01T15:56:47;13.60;46.00
27795;DHT22;15176;50.844;4.412;2023-03-01T15:59:13;13.80;45.60
27795;DHT22;15176;50.844;4.412;2023-03-01T16:01:40;13.60;45.00
27795;DHT22;15176;50.844;4.412;2023-03-01T16:04:06;13.50;45.40
27795;DHT22;15176;50.844;4.412;2023-03-01T16:06:32;13.60;45.20
27795;DHT22;15176;50.844;4.412;2023-03-01T16:08:58;13.40;46.10
27795;DHT22;15176;50.844;4.412;2023-03-01T16:11:23;13.40;46.70
27795;DHT22;15176;50.844;4.412;2023-03-01T16:13:49;13.00;46.20
27795;DHT22;15176;50.844;4.412;2023-03-01T16:16:15;13.00;46.90
27795;DHT22;15176;50.844;4.412;2023-03-01T16:18:43;13.10;46.30
27795;DHT22;15176;50.844;4.412;2023-03-01T16:21:24;13.20;46.10
27795;DHT22;15176;50.844;4.412;2023-03-01T16:23:50;13.10;46.30
27795;DHT22;15176;50.844;4.412;2023-03-01T16:26:16;13.40;45.40
27795;DHT22;15176;50.844;4.412;2023-03-01T16:28:48;13.30;45.80
27795;DHT22;15176;50.844;4.412;2023-03-01T16:31:18;13.20;45.90
27795;DHT22;15176;50.844;4.412;2023-03-01T16:34:03;12.70;46.50
27795;DHT22;15176;50.844;4.412;2023-03-01T16:36:29;12.80;47.80
27795;DHT22;15176;50.844;4.412;2023-03-01T16:39:00;12.90;46.80
27795;DHT22;15176;50.844;4.412;2023-03-01T16:41:27;12.90;46.90
27795;DHT22;15176;50.844;4.412;2023-03-01T16:43:53;12.30;47.40
27795;DHT22;15176;50.844;4.412;2023-03-01T16:46:22;12.30;47.60
27795;DHT22;15176;50.844;4.412;2023-03-01T16:48:48;12.20;48.20
27795;DHT22;15176;50.844;4.412;2023-03-01T16:51:14;12.10;48.20
27795;DHT22;15176;50.844;4.412;2023-03-01T16:53:40;12.00;48.50
27795;DHT22;15176;50.844;4.412;2023-03-01T16:56:09;12.20;49.20
27795;DHT22;15176;50.844;4.412;2023-03-01T16:58:36;11.90;49.70
27795;DHT22;15176;50.844;4.412;2023-03-01T17:01:14;12.10;49.90
27795;DHT22;15176;50.844;4.412;2023-03-01T17:03:41;12.40;49.10
27795;DHT22;15176;50.844;4.412;2023-03-01T17:06:10;12.10;48.70
27795;DHT22;15176;50.844;4.412;2023-03-01T17:08:37;12.10;49.90
27795;DHT22;15176;50.844;4.412;2023-03-01T17:11:06;12.20;49.50
27795;DHT22;15176;50.844;4.412;2023-03-01T17:13:32;12.20;49.40
27795;DHT22;15176;50.844;4.412;2023-03-01T17:16:07;12.20;49.80
27795;DHT22;15176;50.844;4.412;2023-03-01T17:18:33;12.40;49.80
27795;DHT22;15176;50.844;4.412;2023-03-01T17:20:59;12.50;50.20
27795;DHT22;15176;50.844;4.412;2023-03-01T17:23:26;12.10;50.20
27795;DHT22;15176;50.844;4.412;2023-03-01T17:25:52;12.00;50.60
27795;DHT22;15176;50.844;4.412;2023-03-01T17:28:24;11.80;51.10
27795;DHT22;15176;50.844;4.412;2023-03-01T17:30:50;11.70;51.30
27795;DHT22;15176;50.844;4.412;2023-03-01T17:33:20;11.50;52.20
27795;DHT22;15176;50.844;4.412;2023-03-01T17:35:46;11.60;52.40
27795;DHT22;15176;50.844;4.412;2023-03-01T17:38:13;11.50;51.90
27795;DHT22;15176;50.844;4.412;2023-03-01T17:40:43;11.50;52.00